Time;durP1;ratioP1;P1;durP2;ratioP2;P2;SDS_P1;SDS_P2;PMS_P1;PMS_P2;Temp;Humidity;BMP_temperature;BMP_pressure;BME280_temperature;BME280_humidity;BME280_pressure;Samples;Min_cycle;Max_cycle;Signal;HPM_P1;HPM_P2
2023/01/08 00:00:30;;;;;;;5.80;1.88;;;10.30;99.90;;;;;;5069103;28;20174;-70
2023/01/08 00:02:55;;;;;;;16.70;2.40;;;10.20;99.90;;;;;;5066657;28;20107;-70
2023/01/08 00:05:21;;;;;;;17.15;2.60;;;10.20;99.90;;;;;;5049547;28;20436;-71
2023/01/08 00:07:46;;;;;;;11.07;2.20;;;10.10;99.90;;;;;;5073012;28;20028;-71
2023/01/08 00:10:12;;;;;;;13.10;2.65;;;10.10;99.90;;;;;;5068796;28;20029;-70
2023/01/08 00:12:37;;;;;;;11.20;2.40;;;10.10;99.90;;;;;;5061640;28;20031;-70
2023/01/08 00:15:03;;;;;;;18.02;2.25;;;10.10;99.90;;;;;;5063555;28;20049;-70
2023/01/08 00:17:29;;;;;;;10.38;1.85;;;10.10;99.90;;;;;;5068603;28;20032;-70
2023/01/08 00:19:54;;;;;;;13.27;2.25;;;10.00;99.90;;;;;;5070662;28;20481;-69
2023/01/08 00:22:20;;;;;;;20.33;2.95;;;10.00;99.90;;;;;;5069836;28;20472;-71
2023/01/08 00:24:46;;;;;;;14.23;2.85;;;10.00;99.90;;;;;;5071626;28;20515;-70
2023/01/08 00:27:11;;;;;;;13.38;1.95;;;10.00;99.90;;;;;;5056107;28;20035;-72
2023/01/08 00:29:37;;;;;;;20.38;3.00;;;9.90;99.90;;;;;;5072132;28;20032;-70
2023/01/08 00:32:03;;;;;;;9.55;2.20;;;9.90;99.90;;;;;;5071691;28;20039;-71
2023/01/08 00:34:29;;;;;;;17.15;2.92;;;9.90;99.90;;;;;;5069002;28;20480;-70
2023/01/08 00:36:54;;;;;;;15.75;3.47;;;9.80;99.90;;;;;;5072673;28;20074;-70
2023/01/08 00:39:20;;;;;;;11.07;2.88;;;9.90;99.90;;;;;;5064189;28;20020;-70
2023/01/08 00:41:45;;;;;;;15.10;2.15;;;9.90;99.90;;;;;;5074268;28;20524;-69
2023/01/08 00:44:11;;;;;;;12.15;2.00;;;9.90;99.90;;;;;;5051919;28;20032;-71
2023/01/08 00:46:36;;;;;;;12.43;3.17;;;9.90;99.90;;;;;;5060714;28;20082;-71
2023/01/08 00:49:02;;;;;;;17.05;2.50;;;9.80;99.90;;;;;;5074140;28;20028;-70
2023/01/08 00:51:28;;;;;;;12.30;2.50;;;9.80;99.90;;;;;;5074374;28;20028;-70
2023/01/08 00:53:53;;;;;;;11.48;2.75;;;9.80;99.90;;;;;;5054094;28;20036;-70
2023/01/08 00:56:19;;;;;;;13.13;2.40;;;9.80;99.90;;;;;;5058160;28;20044;-70
2023/01/08 00:58:44;;;;;;;11.82;2.55;;;9.80;99.90;;;;;;5065218;28;20025;-70
2023/01/08 01:01:14;;;;;;;12.82;2.55;;;9.80;99.90;;;;;;5066384;28;20535;-70
2023/01/08 01:03:40;;;;;;;15.38;3.13;;;9.80;99.90;;;;;;5062341;28;20036;-70
2023/01/08 01:06:06;;;;;;;18.08;3.30;;;9.80;99.90;;;;;;5072756;28;20694;-70
2023/01/08 01:08:33;;;;;;;14.32;2.33;;;9.80;99.90;;;;;;5067136;28;20055;-69
2023/01/08 01:10:59;;;;;;;10.95;2.35;;;9.70;99.90;;;;;;5067243;28;20385;-70
2023/01/08 01:13:24;;;;;;;10.52;1.52;;;9.70;99.90;;;;;;5059509;28;20047;-69
2023/01/08 01:16:00;;;;;;;11.73;2.40;;;9.70;99.90;;;;;;5072518;28;20427;-70
2023/01/08 01:18:26;;;;;;;9.00;2.13;;;9.60;99.90;;;;;;5067255;28;20025;-69
2023/01/08 01:20:52;;;;;;;10.60;2.30;;;9.60;99.90;;;;;;5063288;28;20401;-70
2023/01/08 01:23:18;;;;;;;15.68;2.05;;;9.60;99.90;;;;;;5072283;28;20033;-70
2023/01/08 01:25:43;;;;;;;9.98;2.15;;;9.60;99.90;;;;;;5073461;28;20033;-70
2023/01/08 01:28:09;;;;;;;16.02;3.33;;;9.60;99.90;;;;;;5065710;28;20040;-70
2023/01/08 01:30:34;;;;;;;9.32;2.10;;;9.60;99.90;;;;;;5072051;28;20092;-70
2023/01/08 01:33:00;;;;;;;9.35;1.85;;;9.50;99.90;;;;;;5054334;28;20129;-70
2023/01/08 01:35:26;;;;;;;14.02;2.65;;;9.50;99.90;;;;;;5065874;28;20029;-70
2023/01/08 01:37:51;;;;;;;11.45;2.33;;;9.50;99.90;;;;;;5068683;28;20376;-70
2023/01/08 01:40:17;;;;;;;12.68;2.20;;;9.50;99.90;;;;;;5073819;28;20059;-70
2023/01/08 01:42:43;;;;;;;6.28;1.15;;;9.40;99.90;;;;;;5065601;28;20025;-70
2023/01/08 01:45:21;;;;;;;6.80;1.48;;;9.40;99.90;;;;;;5073422;28;20366;-70
2023/01/08 01:47:54;;;;;;;9.32;1.67;;;9.30;99.90;;;;;;5068336;28;20024;-69
2023/01/08 01:50:36;;;;;;;8.57;1.65;;;9.30;99.90;;;;;;5072997;28;20025;-70
2023/01/08 01:53:07;;;;;;;8.73;1.77;;;9.30;99.90;;;;;;5062076;28;20025;-69
2023/01/08 01:55:36;;;;;;;8.38;2.45;;;9.20;99.90;;;;;;5060309;28;20481;-70
2023/01/08 01:58:27;;;;;;;5.53;1.95;;;9.20;99.90;;;;;;5059835;28;20047;-70
2023/01/08 02:00:55;;;;;;;8.88;1.85;;;9.20;99.90;;;;;;5072615;28;20548;-70
2023/01/08 02:03:23;;;;;;;10.35;2.65;;;9.20;99.90;;;;;;5072625;28;20032;-71
2023/01/08 02:06:12;;;;;;;10.32;2.03;;;9.20;99.90;;;;;;5059233;28;20031;-70
2023/01/08 02:08:50;;;;;;;9.27;1.75;;;9.20;99.90;;;;;;5062500;28;20106;-69
2023/01/08 02:11:41;;;;;;;7.78;2.00;;;9.20;99.90;;;;;;5065599;28;20115;-70
2023/01/08 02:14:18;;;;;;;5.18;1.40;;;9.10;99.90;;;;;;5058142;28;20041;-70
2023/01/08 02:17:04;;;;;;;11.73;3.25;;;9.10;99.90;;;;;;5069203;28;20045;-71
2023/01/08 02:19:35;;;;;;;5.30;2.15;;;9.10;99.90;;;;;;5061231;28;20028;-70
2023/01/08 02:22:11;;;;;;;9.00;1.50;;;9.10;99.90;;;;;;5068945;28;20036;-70
2023/01/08 02:24:48;;;;;;;10.85;2.35;;;9.10;99.90;;;;;;5067996;28;20436;-70
2023/01/08 02:27:16;;;;;;;10.15;1.90;;;9.00;99.90;;;;;;5067066;28;20025;-71
2023/01/08 02:29:42;;;;;;;9.50;1.95;;;9.10;99.90;;;;;;5057774;28;20066;-70
2023/01/08 02:32:08;;;;;;;8.48;2.03;;;9.10;99.90;;;;;;5060309;28;20028;-71
2023/01/08 02:34:34;;;;;;;6.57;2.88;;;9.10;99.90;;;;;;5071415;28;20032;-69
2023/01/08 02:37:00;;;;;;;9.20;2.08;;;9.00;99.90;;;;;;5055976;28;20520;-70
2023/01/08 02:39:37;;;;;;;6.50;1.58;;;9.00;99.90;;;;;;5068754;28;20101;-70
2023/01/08 02:42:26;;;;;;;12.57;2.20;;;9.00;99.90;;;;;;5065433;28;20034;-70
2023/01/08 02:45:25;;;;;;;9.23;2.10;;;9.00;99.90;;;;;;5060308;28;20090;-69
2023/01/08 02:48:00;;;;;;;6.18;1.92;;;9.10;99.90;;;;;;5061932;28;20028;-70
2023/01/08 02:50:38;;;;;;;15.07;2.60;;;9.10;99.90;;;;;;5067351;28;20033;-69
2023/01/08 02:53:23;;;;;;;15.07;2.55;;;9.10;99.90;;;;;;5070370;28;20037;-70
2023/01/08 02:55:54;;;;;;;9.20;2.47;;;9.10;99.90;;;;;;5059179;28;20028;-70
2023/01/08 02:58:21;;;;;;;15.60;2.67;;;9.20;99.90;;;;;;5063930;28;20047;-70
2023/01/08 03:00:47;;;;;;;10.90;2.75;;;9.20;99.90;;;;;;5072872;28;20032;-70
2023/01/08 03:03:21;;;;;;;11.10;2.60;;;9.20;99.90;;;;;;5069834;28;20487;-70
2023/01/08 03:05:50;;;;;;;9.75;3.55;;;9.20;99.90;;;;;;5072836;28;20028;-70
2023/01/08 03:08:18;;;;;;;7.38;3.00;;;9.20;99.90;;;;;;5072628;28;20368;-70
2023/01/08 03:10:48;;;;;;;11.45;2.85;;;9.20;99.90;;;;;;5071240;28;20021;-70
2023/01/08 03:13:23;;;;;;;10.65;2.65;;;9.20;99.90;;;;;;5064450;28;20115;-69
2023/01/08 03:15:54;;;;;;;8.45;3.22;;;9.10;99.90;;;;;;5059445;28;20527;-69
2023/01/08 03:18:30;;;;;;;9.73;2.78;;;9.20;99.90;;;;;;5070172;28;20115;-70
2023/01/08 03:20:56;;;;;;;4.10;1.95;;;9.10;99.90;;;;;;5065973;28;20027;-70
2023/01/08 03:23:24;;;;;;;8.48;2.20;;;9.10;99.90;;;;;;5072102;28;20032;-70
2023/01/08 03:25:50;;;;;;;6.00;2.15;;;9.10;99.90;;;;;;5072339;28;20040;-70
2023/01/08 03:28:23;;;;;;;12.60;2.60;;;9.20;99.90;;;;;;5072190;28;20380;-70
2023/01/08 03:30:51;;;;;;;11.25;2.42;;;9.20;99.90;;;;;;5071394;28;20070;-70
2023/01/08 03:33:18;;;;;;;10.57;2.35;;;9.10;99.90;;;;;;5071952;28;20020;-70
2023/01/08 03:35:47;;;;;;;7.63;2.05;;;9.10;99.90;;;;;;5072131;28;20477;-70
2023/01/08 03:38:29;;;;;;;8.02;2.72;;;9.10;99.90;;;;;;5071559;28;20439;-70
2023/01/08 03:41:00;;;;;;;5.13;2.00;;;9.10;99.90;;;;;;5074376;28;20476;-70
2023/01/08 03:43:28;;;;;;;7.30;2.22;;;9.00;99.90;;;;;;5072282;28;20032;-70
2023/01/08 03:45:58;;;;;;;7.80;2.22;;;9.00;99.90;;;;;;5071743;28;20431;-70
2023/01/08 03:48:25;;;;;;;5.95;2.15;;;9.00;99.90;;;;;;5072074;28;20479;-70
2023/01/08 03:50:51;;;;;;;7.68;2.33;;;8.90;99.90;;;;;;5071646;28;20033;-70
2023/01/08 03:53:16;;;;;;;8.48;2.28;;;8.90;99.90;;;;;;5071124;28;20090;-69
2023/01/08 03:55:42;;;;;;;8.57;1.90;;;9.00;99.90;;;;;;5070052;28;20047;-70
2023/01/08 03:58:07;;;;;;;10.50;2.17;;;9.00;99.90;;;;;;5070119;28;20423;-70
2023/01/08 04:00:33;;;;;;;14.45;3.38;;;9.00;99.90;;;;;;5059045;28;20025;-69
2023/01/08 04:02:59;;;;;;;3.65;1.60;;;9.00;99.90;;;;;;5070945;28;20060;-70
2023/01/08 04:05:24;;;;;;;7.05;1.92;;;9.00;99.90;;;;;;5064583;28;20029;-70
2023/01/08 04:07:53;;;;;;;5.35;1.80;;;9.00;99.90;;;;;;5051709;28;20841;-70
2023/01/08 04:10:18;;;;;;;10.80;1.60;;;9.00;99.90;;;;;;5052238;28;20037;-71
2023/01/08 04:12:44;;;;;;;10.32;1.73;;;8.90;99.90;;;;;;5060755;28;20432;-71
2023/01/08 04:15:10;;;;;;;8.35;1.85;;;8.80;99.90;;;;;;5069251;28;20453;-71
2023/01/08 04:17:36;;;;;;;6.63;1.75;;;8.80;99.90;;;;;;5064599;28;20167;-70
2023/01/08 04:20:02;;;;;;;8.85;1.65;;;8.80;99.90;;;;;;5051350;28;20041;-70
2023/01/08 04:22:28;;;;;;;5.93;1.63;;;8.70;99.90;;;;;;5066209;28;20460;-69
2023/01/08 04:24:53;;;;;;;11.15;1.77;;;8.70;99.90;;;;;;5070251;28;20040;-70
2023/01/08 04:27:19;;;;;;;11.48;1.60;;;8.70;99.90;;;;;;5070487;28;20516;-69
2023/01/08 04:29:44;;;;;;;12.05;1.90;;;8.60;99.90;;;;;;5055354;28;20025;-70
2023/01/08 04:32:10;;;;;;;7.57;1.73;;;8.60;99.90;;;;;;5064767;28;20024;-70
2023/01/08 04:34:36;;;;;;;8.13;1.65;;;8.60;99.90;;;;;;5074905;28;20093;-70
2023/01/08 04:37:02;;;;;;;9.50;1.45;;;8.50;99.90;;;;;;5075054;28;20029;-69
2023/01/08 04:39:27;;;;;;;9.70;1.67;;;8.50;99.90;;;;;;5043964;28;20043;-70
2023/01/08 04:41:53;;;;;;;13.02;2.00;;;8.50;99.90;;;;;;5073807;28;20025;-70
2023/01/08 04:44:18;;;;;;;9.48;1.58;;;8.50;99.90;;;;;;5073884;28;20028;-70
2023/01/08 04:46:44;;;;;;;22.52;2.65;;;8.50;99.90;;;;;;5074533;28;20024;-70
2023/01/08 04:49:10;;;;;;;12.25;2.13;;;8.50;99.90;;;;;;5074493;28;20033;-70
2023/01/08 04:51:36;;;;;;;8.73;1.55;;;8.60;99.90;;;;;;5073603;28;20070;-70
2023/01/08 04:54:02;;;;;;;13.40;1.80;;;8.60;99.90;;;;;;5074772;28;20036;-70
2023/01/08 04:56:27;;;;;;;16.45;3.22;;;8.60;99.90;;;;;;5074768;28;20392;-70
2023/01/08 04:58:53;;;;;;;10.13;1.88;;;8.50;99.90;;;;;;5057921;28;20041;-70
2023/01/08 05:01:23;;;;;;;13.32;2.03;;;8.50;99.90;;;;;;5054797;28;20096;-69
2023/01/08 05:03:57;;;;;;;6.70;1.27;;;8.50;99.90;;;;;;5072890;28;20037;-69
2023/01/08 05:06:23;;;;;;;15.45;2.22;;;8.50;99.90;;;;;;5074398;28;20025;-70
2023/01/08 05:08:49;;;;;;;6.13;1.38;;;8.50;99.90;;;;;;5072446;28;20028;-70
2023/01/08 05:11:14;;;;;;;11.45;1.55;;;8.50;99.90;;;;;;5074712;28;20025;-70
2023/01/08 05:13:40;;;;;;;14.93;2.15;;;8.60;99.90;;;;;;5072824;28;20074;-69
2023/01/08 05:16:06;;;;;;;8.45;2.05;;;8.60;99.90;;;;;;5074491;28;20507;-69
2023/01/08 05:18:31;;;;;;;24.27;2.88;;;8.60;99.90;;;;;;5074124;28;20514;-69
2023/01/08 05:21:01;;;;;;;6.38;1.10;;;8.60;99.90;;;;;;5074344;28;20074;-70
2023/01/08 05:23:28;;;;;;;12.95;1.83;;;8.50;99.90;;;;;;5073005;28;20033;-70
2023/01/08 05:26:00;;;;;;;8.60;1.88;;;8.50;99.90;;;;;;5074241;28;20039;-70
2023/01/08 05:28:26;;;;;;;9.70;2.08;;;8.50;99.90;;;;;;5072567;28;20384;-69
2023/01/08 05:30:52;;;;;;;7.82;1.42;;;8.40;99.90;;;;;;5074397;28;20033;-70
2023/01/08 05:33:18;;;;;;;13.38;1.85;;;8.40;99.90;;;;;;5071888;28;20111;-70
2023/01/08 05:35:43;;;;;;;11.13;1.45;;;8.40;99.90;;;;;;5073705;28;20048;-70
2023/01/08 05:38:09;;;;;;;8.60;1.70;;;8.40;99.90;;;;;;5055957;28;20028;-70
2023/01/08 05:40:35;;;;;;;12.93;1.70;;;8.40;99.90;;;;;;5073561;28;20058;-70
2023/01/08 05:43:01;;;;;;;10.45;1.85;;;8.50;99.90;;;;;;5073092;28;20025;-69
2023/01/08 05:45:27;;;;;;;9.30;1.73;;;8.50;99.90;;;;;;5073601;28;20113;-70
2023/01/08 05:47:53;;;;;;;14.65;1.85;;;8.60;99.90;;;;;;5073864;28;20225;-70
2023/01/08 05:50:19;;;;;;;12.82;2.25;;;8.60;99.90;;;;;;5073755;28;20028;-70
2023/01/08 05:52:44;;;;;;;8.80;1.80;;;8.60;99.90;;;;;;5072763;28;20027;-70
2023/01/08 05:55:10;;;;;;;10.75;2.22;;;8.60;99.90;;;;;;5073611;28;20032;-70
2023/01/08 05:57:35;;;;;;;6.97;2.38;;;8.70;99.90;;;;;;5073429;28;20056;-70
2023/01/08 06:00:03;;;;;;;10.98;1.52;;;8.70;99.90;;;;;;5072205;28;20055;-70
2023/01/08 06:02:29;;;;;;;9.70;2.25;;;8.70;99.90;;;;;;5072234;28;20107;-70
2023/01/08 06:04:55;;;;;;;6.35;1.30;;;8.70;99.90;;;;;;5073330;28;20100;-69
2023/01/08 06:07:20;;;;;;;14.55;2.17;;;8.70;99.90;;;;;;5091326;28;20035;-70
2023/01/08 06:09:46;;;;;;;9.73;1.65;;;8.60;99.90;;;;;;5085205;28;20025;-70
2023/01/08 06:12:11;;;;;;;11.38;3.10;;;8.60;99.90;;;;;;5070932;28;20024;-70
2023/01/08 06:14:37;;;;;;;8.38;2.05;;;8.60;99.90;;;;;;5043192;28;20111;-70
2023/01/08 06:17:02;;;;;;;9.63;2.00;;;8.60;99.90;;;;;;5053241;28;20024;-70
2023/01/08 06:19:28;;;;;;;8.93;1.40;;;8.50;99.90;;;;;;5057860;28;20384;-70
2023/01/08 06:21:53;;;;;;;8.88;1.70;;;8.50;99.90;;;;;;5073376;28;20033;-70
2023/01/08 06:24:19;;;;;;;7.50;1.33;;;8.40;99.90;;;;;;5072940;28;20032;-69
2023/01/08 06:26:44;;;;;;;5.72;2.20;;;8.40;99.90;;;;;;5072827;28;20158;-69
2023/01/08 06:29:10;;;;;;;10.23;2.15;;;8.40;99.90;;;;;;5055881;28;20448;-70
2023/01/08 06:31:35;;;;;;;8.77;1.48;;;8.40;99.90;;;;;;5072013;28;20482;-70
2023/01/08 06:34:01;;;;;;;7.30;2.03;;;8.40;99.90;;;;;;5072961;28;20523;-70
2023/01/08 06:36:27;;;;;;;13.93;2.10;;;8.40;99.90;;;;;;5073046;28;20349;-69
2023/01/08 06:38:54;;;;;;;8.57;1.90;;;8.40;99.90;;;;;;5072102;28;20054;-70
2023/01/08 06:41:20;;;;;;;11.55;1.95;;;8.30;99.90;;;;;;5072284;28;20032;-69
2023/01/08 06:43:46;;;;;;;15.80;2.65;;;8.30;99.90;;;;;;5072831;28;20039;-70
2023/01/08 06:46:11;;;;;;;9.38;2.00;;;8.30;99.90;;;;;;5072303;28;20028;-69
2023/01/08 06:48:37;;;;;;;6.38;1.63;;;8.30;99.90;;;;;;5070642;28;20032;-70
2023/01/08 06:51:03;;;;;;;7.00;1.38;;;8.20;99.90;;;;;;5072860;28;20082;-70
2023/01/08 06:53:29;;;;;;;14.07;1.77;;;8.20;99.90;;;;;;5072778;28;20033;-69
2023/01/08 06:55:58;;;;;;;12.38;1.60;;;8.30;99.90;;;;;;5072620;28;20032;-70
2023/01/08 06:58:27;;;;;;;9.05;1.50;;;8.20;99.90;;;;;;5059258;28;20527;-70
2023/01/08 07:00:52;;;;;;;8.65;1.52;;;8.30;99.90;;;;;;5052701;28;20037;-70
2023/01/08 07:03:19;;;;;;;8.85;1.83;;;8.20;99.90;;;;;;5065882;28;20078;-70
2023/01/08 07:05:44;;;;;;;12.48;2.22;;;8.20;99.90;;;;;;5072540;28;20017;-69
2023/01/08 07:08:14;;;;;;;7.93;2.13;;;8.20;99.90;;;;;;5071504;28;20472;-70
2023/01/08 07:10:41;;;;;;;8.40;1.95;;;8.20;99.90;;;;;;5072581;28;20059;-70
2023/01/08 07:13:08;;;;;;;10.52;2.08;;;8.20;99.90;;;;;;5072268;28;20029;-70
2023/01/08 07:15:35;;;;;;;7.68;1.73;;;8.20;99.90;;;;;;5071632;28;20055;-69
2023/01/08 07:18:06;;;;;;;13.75;1.58;;;8.10;99.90;;;;;;5071351;28;20465;-69
2023/01/08 07:20:33;;;;;;;10.38;2.03;;;8.10;99.90;;;;;;5072206;28;20032;-70
2023/01/08 07:23:03;;;;;;;9.88;1.60;;;8.10;99.90;;;;;;5072218;28;20468;-70
2023/01/08 07:25:29;;;;;;;8.45;1.52;;;8.10;99.90;;;;;;5071781;28;20439;-69
2023/01/08 07:27:55;;;;;;;10.40;1.88;;;8.10;99.90;;;;;;5071189;28;20028;-69
2023/01/08 07:30:21;;;;;;;9.13;1.88;;;8.00;99.90;;;;;;5072417;28;20087;-70
2023/01/08 07:32:47;;;;;;;10.88;2.08;;;8.00;99.90;;;;;;5067579;28;20020;-71
2023/01/08 07:35:12;;;;;;;6.28;1.55;;;7.90;99.90;;;;;;5064719;28;20372;-69
2023/01/08 07:37:39;;;;;;;16.70;2.50;;;7.90;99.90;;;;;;5071242;28;20127;-70
2023/01/08 07:40:05;;;;;;;9.57;1.80;;;7.90;99.90;;;;;;5071914;28;20033;-69
2023/01/08 07:42:31;;;;;;;4.07;1.60;;;7.90;99.90;;;;;;5072252;28;20119;-69
2023/01/08 07:44:56;;;;;;;9.82;1.98;;;7.80;99.90;;;;;;5072196;28;20103;-69
2023/01/08 07:47:22;;;;;;;8.40;1.88;;;7.80;99.90;;;;;;5071061;28;20056;-69
2023/01/08 07:49:47;;;;;;;11.23;1.77;;;7.80;99.90;;;;;;5072105;28;20099;-69
2023/01/08 07:52:13;;;;;;;11.90;2.10;;;7.70;99.90;;;;;;5071000;28;20052;-69
2023/01/08 07:54:39;;;;;;;13.80;2.50;;;7.80;99.90;;;;;;5071793;28;20467;-70
2023/01/08 07:57:04;;;;;;;11.32;2.47;;;7.70;99.90;;;;;;5071294;28;20044;-70
2023/01/08 08:00:00;;;;;;;14.77;2.38;;;7.70;99.90;;;;;;5077108;28;20093;-70
2023/01/08 08:02:26;;;;;;;11.32;2.45;;;7.70;99.90;;;;;;5067313;28;20032;-71
2023/01/08 08:04:51;;;;;;;10.35;2.35;;;7.70;99.90;;;;;;5072025;28;20419;-70
2023/01/08 08:07:17;;;;;;;9.52;1.98;;;7.70;99.90;;;;;;5083323;28;20035;-70
2023/01/08 08:09:42;;;;;;;7.28;1.90;;;7.70;99.90;;;;;;5073286;28;20051;-71
2023/01/08 08:12:08;;;;;;;5.28;1.70;;;7.60;99.90;;;;;;5055653;28;20127;-71
2023/01/08 08:14:33;;;;;;;6.35;1.65;;;7.60;99.90;;;;;;5055344;28;20473;-71
2023/01/08 08:17:00;;;;;;;10.35;2.20;;;7.60;99.90;;;;;;5058227;28;20025;-71
2023/01/08 08:19:25;;;;;;;18.92;2.47;;;7.60;99.90;;;;;;5075306;28;20048;-71
2023/01/08 08:21:53;;;;;;;15.82;3.00;;;7.60;99.90;;;;;;5056108;28;20457;-70
2023/01/08 08:24:18;;;;;;;12.38;1.95;;;7.60;99.90;;;;;;5059246;28;20028;-71
2023/01/08 08:26:44;;;;;;;6.25;1.42;;;7.60;99.90;;;;;;5058395;28;20037;-71
2023/01/08 08:29:10;;;;;;;15.18;2.38;;;7.70;99.90;;;;;;5058419;28;20035;-69
2023/01/08 08:31:35;;;;;;;5.68;1.30;;;7.70;99.90;;;;;;5054916;28;20039;-69
2023/01/08 08:34:01;;;;;;;11.10;1.70;;;7.70;99.90;;;;;;5056798;28;20078;-69
2023/01/08 08:36:28;;;;;;;4.95;1.63;;;7.70;99.90;;;;;;5070887;28;20055;-70
2023/01/08 08:38:54;;;;;;;8.30;2.10;;;7.70;99.90;;;;;;5074986;28;20052;-70
2023/01/08 08:41:19;;;;;;;8.07;1.58;;;7.70;99.90;;;;;;5074969;28;20469;-71
2023/01/08 08:43:45;;;;;;;12.52;2.40;;;7.80;99.90;;;;;;5075123;28;20028;-70
2023/01/08 08:46:10;;;;;;;8.38;1.95;;;7.80;99.90;;;;;;5074873;28;20104;-70
2023/01/08 08:48:39;;;;;;;16.75;2.50;;;7.80;99.90;;;;;;5071985;28;20040;-70
2023/01/08 08:51:04;;;;;;;14.02;2.10;;;7.80;99.90;;;;;;5074314;28;20384;-70
2023/01/08 08:53:30;;;;;;;8.02;1.77;;;7.80;99.90;;;;;;5075086;28;20024;-71
2023/01/08 08:55:57;;;;;;;8.15;2.28;;;7.80;99.90;;;;;;5073895;28;20040;-69
2023/01/08 08:58:23;;;;;;;8.27;1.63;;;7.90;99.90;;;;;;5068065;28;20033;-70
2023/01/08 09:00:49;;;;;;;11.55;2.65;;;7.90;99.90;;;;;;5057217;28;20036;-70
2023/01/08 09:03:15;;;;;;;7.70;1.23;;;7.90;99.90;;;;;;5058583;28;20056;-69
2023/01/08 09:05:41;;;;;;;5.88;1.58;;;7.90;99.90;;;;;;5077223;28;20028;-69
2023/01/08 09:08:07;;;;;;;11.40;2.00;;;7.90;99.90;;;;;;5078191;28;20029;-70
2023/01/08 09:10:35;;;;;;;11.52;1.95;;;7.90;99.90;;;;;;5074558;28;20373;-69
2023/01/08 09:13:00;;;;;;;5.70;1.38;;;7.90;99.90;;;;;;5084572;28;20028;-69
2023/01/08 09:15:26;;;;;;;7.15;1.50;;;7.90;99.90;;;;;;5079622;28;20060;-68
2023/01/08 09:17:53;;;;;;;7.82;1.50;;;8.00;99.90;;;;;;5072095;28;20047;-70
2023/01/08 09:20:19;;;;;;;7.10;1.60;;;8.00;99.90;;;;;;5074140;28;20419;-69
2023/01/08 09:22:44;;;;;;;6.88;1.55;;;8.00;99.90;;;;;;5071998;28;20085;-68
2023/01/08 09:25:10;;;;;;;20.13;2.08;;;8.10;99.90;;;;;;5071522;28;20036;-71
2023/01/08 09:27:35;;;;;;;5.32;1.67;;;8.10;99.90;;;;;;5073229;28;20039;-69
2023/01/08 09:30:01;;;;;;;6.40;1.80;;;8.10;99.90;;;;;;5074197;28;20059;-70
2023/01/08 09:32:26;;;;;;;9.48;1.40;;;8.20;99.90;;;;;;5060899;28;20029;-70
2023/01/08 09:34:52;;;;;;;11.63;2.05;;;8.20;99.90;;;;;;5071871;28;20478;-71
2023/01/08 09:37:17;;;;;;;8.10;1.55;;;8.20;99.90;;;;;;5072514;28;20055;-70
2023/01/08 09:39:43;;;;;;;4.97;1.40;;;8.30;99.90;;;;;;5073628;28;20028;-70
2023/01/08 09:42:12;;;;;;;8.30;1.45;;;8.30;99.90;;;;;;5072366;28;20032;-68
2023/01/08 09:44:41;;;;;;;7.25;1.73;;;8.40;99.90;;;;;;5073839;28;20024;-71
2023/01/08 09:47:27;;;;;;;6.15;1.45;;;8.40;99.90;;;;;;5073799;28;20448;-70
2023/01/08 09:49:58;;;;;;;5.07;1.40;;;8.50;99.90;;;;;;5073810;28;20040;-70
2023/01/08 09:52:25;;;;;;;4.75;1.33;;;8.60;99.90;;;;;;5062248;28;20129;-70
2023/01/08 09:54:51;;;;;;;6.13;1.70;;;8.60;99.90;;;;;;5073604;28;20033;-70
2023/01/08 09:57:19;;;;;;;6.63;1.75;;;8.70;99.90;;;;;;5073494;28;20115;-71
2023/01/08 09:59:48;;;;;;;12.57;1.85;;;8.70;99.90;;;;;;5053520;28;20538;-70
2023/01/08 10:02:19;;;;;;;9.10;2.72;;;8.80;99.90;;;;;;5055316;28;20445;-69
2023/01/08 10:04:48;;;;;;;11.37;2.10;;;9.00;99.90;;;;;;5073151;28;20103;-70
2023/01/08 10:07:23;;;;;;;5.72;1.48;;;9.20;99.90;;;;;;5071785;28;20799;-70
2023/01/08 10:09:49;;;;;;;10.43;1.92;;;9.40;99.90;;;;;;5073738;28;20027;-70
2023/01/08 10:12:37;;;;;;;11.13;2.45;;;9.70;99.90;;;;;;5067159;28;20396;-69
2023/01/08 10:15:07;;;;;;;8.23;1.88;;;10.00;99.90;;;;;;5063892;28;20119;-69
2023/01/08 10:17:40;;;;;;;13.63;2.30;;;10.30;99.90;;;;;;5038845;28;20025;-69
2023/01/08 10:20:18;;;;;;;7.90;1.90;;;10.50;99.90;;;;;;5031138;28;20072;-69
2023/01/08 10:22:46;;;;;;;7.35;1.85;;;10.40;99.90;;;;;;5036891;28;20036;-68
2023/01/08 10:25:16;;;;;;;6.22;1.85;;;10.30;99.90;;;;;;5048806;28;20033;-69
2023/01/08 10:28:01;;;;;;;5.85;1.92;;;10.10;99.90;;;;;;5051500;28;20039;-69
2023/01/08 10:30:30;;;;;;;9.68;1.70;;;9.90;99.90;;;;;;5043994;28;20025;-70
2023/01/08 10:33:01;;;;;;;9.15;1.88;;;9.90;99.90;;;;;;5048688;28;20493;-69
2023/01/08 10:35:38;;;;;;;10.02;2.35;;;10.00;99.90;;;;;;5041719;28;20036;-69
2023/01/08 10:38:04;;;;;;;7.03;1.95;;;10.50;99.90;;;;;;5052080;28;20465;-70
2023/01/08 10:40:38;;;;;;;14.98;2.15;;;10.90;99.90;;;;;;5043564;28;20032;-70
2023/01/08 10:43:16;;;;;;;6.43;1.70;;;11.20;99.90;;;;;;5049387;28;20025;-70
2023/01/08 10:45:53;;;;;;;6.78;1.73;;;11.60;99.90;;;;;;5048266;28;20461;-71
2023/01/08 10:48:19;;;;;;;6.35;1.92;;;11.90;99.90;;;;;;5047821;28;20024;-71
2023/01/08 10:50:44;;;;;;;10.63;1.85;;;11.90;99.90;;;;;;5049270;28;20055;-68
2023/01/08 10:53:25;;;;;;;7.28;1.45;;;12.10;99.90;;;;;;5056360;28;20028;-70
2023/01/08 10:56:02;;;;;;;5.47;1.73;;;12.40;99.90;;;;;;5047953;28;20040;-70
2023/01/08 10:58:49;;;;;;;11.85;2.03;;;12.30;99.90;;;;;;5045553;28;20371;-70
2023/01/08 11:01:17;;;;;;;6.47;1.63;;;11.90;99.90;;;;;;5049267;28;20033;-69
2023/01/08 11:03:52;;;;;;;9.35;1.60;;;11.50;99.90;;;;;;5051827;28;20074;-70
2023/01/08 11:06:26;;;;;;;6.75;1.50;;;11.50;99.90;;;;;;5050194;28;20033;-68
2023/01/08 11:08:55;;;;;;;9.15;1.85;;;11.40;99.90;;;;;;5051357;28;20129;-69
2023/01/08 11:11:22;;;;;;;9.90;2.63;;;11.30;99.90;;;;;;5051991;28;20025;-68
2023/01/08 11:14:00;;;;;;;11.85;2.05;;;11.40;99.90;;;;;;5052319;28;20025;-69
2023/01/08 11:16:34;;;;;;;6.22;1.60;;;11.40;99.90;;;;;;5059188;28;20053;-69
2023/01/08 11:19:00;;;;;;;5.97;1.10;;;11.60;99.90;;;;;;5070550;28;20024;-69
2023/01/08 11:21:30;;;;;;;10.52;2.03;;;11.80;99.90;;;;;;5072384;28;20342;-69
2023/01/08 11:24:18;;;;;;;3.60;1.67;;;12.10;99.90;;;;;;5071999;28;20056;-69
2023/01/08 11:26:58;;;;;;;9.23;2.28;;;12.00;99.90;;;;;;5060382;28;20535;-69
2023/01/08 11:29:37;;;;;;;8.88;2.30;;;12.00;99.90;;;;;;5068645;28;20044;-69
2023/01/08 11:32:17;;;;;;;11.52;2.10;;;11.90;99.90;;;;;;5070231;28;20101;-69
2023/01/08 11:35:06;;;;;;;9.93;2.25;;;11.90;99.90;;;;;;5069356;28;20787;-69
2023/01/08 11:37:44;;;;;;;5.85;1.77;;;11.90;99.90;;;;;;5065769;28;20126;-69
2023/01/08 11:40:13;;;;;;;6.47;2.08;;;11.70;99.90;;;;;;5068611;28;20465;-68
2023/01/08 11:43:00;;;;;;;8.10;1.80;;;11.80;99.90;;;;;;5069173;28;20016;-69
2023/01/08 11:45:36;;;;;;;9.63;2.33;;;12.00;99.90;;;;;;5070736;28;20036;-68
2023/01/08 11:48:17;;;;;;;4.85;1.92;;;12.10;99.90;;;;;;5062038;28;20028;-70
2023/01/08 11:51:09;;;;;;;8.05;1.63;;;12.50;99.90;;;;;;5072738;28;20127;-69
2023/01/08 11:53:53;;;;;;;11.30;1.95;;;12.70;99.90;;;;;;5048137;28;20039;-70
2023/01/08 11:56:44;;;;;;;7.40;1.70;;;12.90;99.90;;;;;;5069752;28;20044;-69
2023/01/08 11:59:39;;;;;;;4.25;1.73;;;12.70;99.90;;;;;;5031780;28;20534;-69
2023/01/08 12:02:36;;;;;;;6.50;2.13;;;12.90;99.90;;;;;;5021594;28;20039;-69
2023/01/08 12:05:21;;;;;;;7.53;1.60;;;12.70;99.90;;;;;;5061456;28;20072;-68
2023/01/08 12:08:00;;;;;;;5.90;2.20;;;12.60;99.90;;;;;;5068432;28;20384;-69
2023/01/08 12:10:46;;;;;;;11.02;2.35;;;12.50;99.90;;;;;;5045795;28;20037;-69
2023/01/08 12:13:30;;;;;;;9.25;2.20;;;12.30;99.90;;;;;;5052465;28;20028;-69
2023/01/08 12:16:14;;;;;;;6.13;1.70;;;12.10;99.90;;;;;;5060628;28;20047;-69
2023/01/08 12:18:39;;;;;;;8.95;2.38;;;12.00;99.90;;;;;;5072747;28;20044;-70
2023/01/08 12:21:28;;;;;;;8.70;2.13;;;12.10;99.90;;;;;;5071726;28;20060;-68
2023/01/08 12:24:20;;;;;;;6.55;2.15;;;12.10;99.90;;;;;;5068540;28;20028;-69
2023/01/08 12:27:27;;;;;;;6.03;1.80;;;12.20;99.90;;;;;;5068242;28;20039;-68
2023/01/08 12:30:38;;;;;;;7.40;2.38;;;12.00;99.90;;;;;;5065472;28;21006;-69
2023/01/08 12:33:10;;;;;;;2.22;1.45;;;12.00;99.90;;;;;;5049951;28;20602;-69
2023/01/08 12:35:43;;;;;;;4.82;1.85;;;12.00;99.90;;;;;;5069244;28;20037;-70
2023/01/08 12:38:33;;;;;;;3.80;1.58;;;12.00;99.90;;;;;;5068837;28;20033;-69
2023/01/08 12:41:05;;;;;;;4.88;1.63;;;11.90;99.90;;;;;;5065943;28;20388;-68
2023/01/08 12:43:52;;;;;;;5.28;2.35;;;11.90;99.90;;;;;;5072707;28;20480;-69
2023/01/08 12:46:19;;;;;;;7.82;2.35;;;11.70;99.90;;;;;;5058848;28;20065;-68
2023/01/08 12:48:48;;;;;;;5.00;1.77;;;11.60;99.90;;;;;;5068448;28;20436;-68
2023/01/08 12:51:37;;;;;;;8.60;2.28;;;11.60;99.90;;;;;;5071773;28;20028;-69
2023/01/08 12:54:31;;;;;;;11.50;2.35;;;11.50;99.90;;;;;;5068975;28;20066;-68
2023/01/08 12:57:06;;;;;;;6.40;1.60;;;11.40;99.90;;;;;;5073131;28;20435;-69
2023/01/08 13:00:07;;;;;;;6.45;2.38;;;11.50;99.90;;;;;;5073116;28;20108;-69
2023/01/08 13:02:45;;;;;;;7.50;2.17;;;11.40;99.90;;;;;;5073953;28;20032;-69
2023/01/08 13:05:27;;;;;;;7.50;2.35;;;11.40;99.90;;;;;;5067507;28;20075;-68